createdAt,value
2022-08-30T00:01:09.175Z,16.45
2022-08-30T00:03:46.027Z,16.45
2022-08-30T00:06:15.368Z,16.49
2022-08-30T00:08:43.360Z,16.47
2022-08-30T00:11:13.383Z,16.45
2022-08-30T00:13:43.360Z,16.43
2022-08-30T00:16:10.852Z,16.43
2022-08-30T00:18:38.826Z,16.42
2022-08-30T00:21:06.864Z,16.41
2022-08-30T00:23:33.983Z,16.37
2022-08-30T00:26:02.782Z,16.36
2022-08-30T00:28:30.312Z,16.33
2022-08-30T00:30:57.496Z,16.27
2022-08-30T00:33:24.565Z,16.24
2022-08-30T00:35:51.516Z,16.25
2022-08-30T00:38:18.503Z,16.23
2022-08-30T00:40:46.193Z,16.21
2022-08-30T00:43:30.647Z,16.16
2022-08-30T00:45:57.964Z,16.16
2022-08-30T00:48:25.191Z,16.14
2022-08-30T00:50:56.476Z,16.08
2022-08-30T00:53:27.453Z,16.08
2022-08-30T00:55:55.315Z,16.10
2022-08-30T00:58:26.874Z,16.10
2022-08-30T01:00:55.549Z,16.11
2022-08-30T01:03:23.393Z,16.11
2022-08-30T01:05:51.827Z,16.09
2022-08-30T01:08:22.146Z,16.03
2022-08-30T01:10:51.078Z,16.01
2022-08-30T01:13:18.392Z,16.02
2022-08-30T01:15:46.326Z,16.01
2022-08-30T01:18:15.021Z,16.03
2022-08-30T01:21:06.961Z,16.00
2022-08-30T01:23:36.755Z,16.03
2022-08-30T01:26:06.485Z,16.03
2022-08-30T01:28:34.839Z,16.06
2022-08-30T01:31:02.052Z,16.03
2022-08-30T01:33:29.023Z,16.01
2022-08-30T01:36:02.728Z,16.02
2022-08-30T01:38:44.033Z,16.00
2022-08-30T01:41:18.212Z,15.99
2022-08-30T01:43:45.994Z,15.98
2022-08-30T01:46:14.770Z,15.98
2022-08-30T01:48:42.385Z,15.97
2022-08-30T01:51:18.034Z,15.97
2022-08-30T01:53:45.778Z,15.95
2022-08-30T01:56:14.064Z,15.96
2022-08-30T01:58:41.259Z,15.97
2022-08-30T02:01:09.527Z,15.95
2022-08-30T02:03:37.431Z,15.93
2022-08-30T02:06:10.116Z,15.91
2022-08-30T02:08:37.976Z,15.89
2022-08-30T02:11:06.228Z,15.89
2022-08-30T02:13:33.916Z,15.86
2022-08-30T02:16:00.876Z,15.87
2022-08-30T02:18:28.283Z,15.85
2022-08-30T02:20:55.361Z,15.85
2022-08-30T02:23:22.304Z,15.83
2022-08-30T02:25:49.207Z,15.80
2022-08-30T02:28:16.123Z,15.80
2022-08-30T02:30:49.039Z,15.82
2022-08-30T02:33:16.300Z,15.82
2022-08-30T02:35:43.403Z,15.80
2022-08-30T02:38:10.796Z,15.74
2022-08-30T02:40:39.065Z,15.71
2022-08-30T02:43:06.831Z,15.66
2022-08-30T02:45:34.060Z,15.60
2022-08-30T02:48:01.124Z,15.58
2022-08-30T02:50:28.053Z,15.58
2022-08-30T02:52:55.378Z,15.53
2022-08-30T02:55:23.186Z,15.53
2022-08-30T02:57:50.294Z,15.52
2022-08-30T03:00:19.310Z,15.48
2022-08-30T03:02:46.664Z,15.49
2022-08-30T03:05:15.535Z,15.48
2022-08-30T03:07:43.463Z,15.51
2022-08-30T03:10:11.073Z,15.50
2022-08-30T03:12:41.589Z,15.49
2022-08-30T03:15:10.636Z,15.45
2022-08-30T03:17:37.616Z,15.39
2022-08-30T03:20:05.518Z,15.35
2022-08-30T03:22:32.727Z,15.31
2022-08-30T03:25:01.402Z,15.28
2022-08-30T03:27:29.217Z,15.25
2022-08-30T03:29:56.665Z,15.23
2022-08-30T03:32:23.686Z,15.24
2022-08-30T03:34:50.885Z,15.20
2022-08-30T03:37:17.984Z,15.18
2022-08-30T03:39:45.634Z,15.20
2022-08-30T03:42:12.786Z,15.19
2022-08-30T03:44:39.966Z,15.19
2022-08-30T03:47:08.622Z,15.19
2022-08-30T03:49:35.665Z,15.19
2022-08-30T03:52:03.360Z,15.17
2022-08-30T03:54:30.737Z,15.17
2022-08-30T03:56:57.989Z,15.17
2022-08-30T03:59:24.924Z,15.17
2022-08-30T04:01:52.023Z,15.15
2022-08-30T04:04:21.097Z,15.07
2022-08-30T04:06:49.138Z,15.04
2022-08-30T04:09:16.588Z,15.04
2022-08-30T04:11:43.664Z,15.04
2022-08-30T04:14:10.898Z,15.05
2022-08-30T04:16:37.889Z,15.03
2022-08-30T04:19:05.555Z,15.06
2022-08-30T04:21:32.574Z,15.09
2022-08-30T04:24:02.186Z,15.13
2022-08-30T04:26:29.181Z,15.16
2022-08-30T04:28:56.835Z,15.18
2022-08-30T04:31:24.233Z,15.20
2022-08-30T04:33:51.224Z,15.21
2022-08-30T04:36:18.366Z,15.21
2022-08-30T04:38:45.244Z,15.22
2022-08-30T04:41:16.453Z,15.24
2022-08-30T04:43:45.551Z,15.24
2022-08-30T04:46:16.668Z,15.25
2022-08-30T04:48:44.046Z,15.25
2022-08-30T04:51:14.131Z,15.25
2022-08-30T04:53:45.011Z,15.29
2022-08-30T04:56:18.207Z,15.30
2022-08-30T04:58:46.599Z,15.29
2022-08-30T05:01:20.424Z,15.30
2022-08-30T05:03:52.256Z,15.34
2022-08-30T05:06:19.776Z,15.36
2022-08-30T05:08:47.044Z,15.39
2022-08-30T05:11:16.214Z,15.39
2022-08-30T05:13:44.206Z,15.46
2022-08-30T05:16:13.573Z,15.49
2022-08-30T05:18:40.686Z,15.53
2022-08-30T05:21:12.157Z,15.56
2022-08-30T05:23:40.336Z,15.59
2022-08-30T05:26:10.000Z,15.65
2022-08-30T05:28:37.169Z,15.71
2022-08-30T05:31:14.255Z,15.77
2022-08-30T05:33:42.030Z,15.80
2022-08-30T05:36:10.097Z,15.86
2022-08-30T05:38:37.307Z,15.89
2022-08-30T05:41:10.629Z,15.91
2022-08-30T05:43:38.565Z,15.96
2022-08-30T05:46:08.741Z,15.99
2022-08-30T05:48:38.730Z,16.00
2022-08-30T05:51:13.858Z,16.07
2022-08-30T05:53:41.567Z,16.14
2022-08-30T05:56:11.608Z,16.14
2022-08-30T05:58:38.771Z,16.22
2022-08-30T06:01:06.552Z,16.26
2022-08-30T06:03:33.567Z,16.30
2022-08-30T06:06:01.055Z,16.34
2022-08-30T06:08:28.125Z,16.43
2022-08-30T06:10:55.257Z,16.46
2022-08-30T06:13:22.501Z,16.50
2022-08-30T06:15:51.142Z,16.54
2022-08-30T06:18:18.835Z,16.56
2022-08-30T06:20:55.301Z,16.60
2022-08-30T06:23:22.857Z,16.63
2022-08-30T06:25:49.848Z,16.68
2022-08-30T06:28:17.239Z,16.77
2022-08-30T06:30:44.317Z,16.88
2022-08-30T06:33:11.420Z,16.99
2022-08-30T06:35:56.706Z,17.09
2022-08-30T06:38:25.690Z,17.11
2022-08-30T06:40:52.697Z,17.08
2022-08-30T06:43:19.784Z,17.04
2022-08-30T06:45:46.842Z,17.04
2022-08-30T06:48:13.753Z,17.05
2022-08-30T06:50:42.243Z,17.08
2022-08-30T06:53:09.671Z,17.05
2022-08-30T06:55:37.452Z,17.10
2022-08-30T06:58:04.853Z,17.19
2022-08-30T07:00:31.841Z,17.18
2022-08-30T07:02:59.237Z,17.16
2022-08-30T07:05:26.242Z,17.09
2022-08-30T07:07:56.241Z,17.02
2022-08-30T07:10:23.203Z,17.00
2022-08-30T07:12:50.371Z,16.91
2022-08-30T07:15:20.567Z,16.78
2022-08-30T07:18:06.302Z,16.67
2022-08-30T07:20:40.548Z,16.60
2022-08-30T07:23:09.333Z,16.60
2022-08-30T07:25:40.233Z,16.57
2022-08-30T07:28:08.282Z,16.61
2022-08-30T07:30:36.003Z,16.63
2022-08-30T07:33:03.189Z,16.67
2022-08-30T07:35:30.272Z,16.67
2022-08-30T07:37:58.531Z,16.69
2022-08-30T07:40:26.344Z,16.69
2022-08-30T07:42:53.640Z,16.75
2022-08-30T07:45:20.973Z,16.82
2022-08-30T07:47:48.024Z,16.86
2022-08-30T07:50:15.161Z,16.91
2022-08-30T07:52:42.064Z,16.97
2022-08-30T07:55:10.148Z,16.97
2022-08-30T07:57:37.194Z,16.97
2022-08-30T08:00:05.503Z,17.01
2022-08-30T08:02:40.899Z,16.98
2022-08-30T08:05:10.269Z,16.96
2022-08-30T08:07:39.337Z,16.93
2022-08-30T08:10:06.975Z,16.99
2022-08-30T08:12:35.015Z,17.11
2022-08-30T08:15:05.418Z,17.14
2022-08-30T08:17:35.814Z,17.16
2022-08-30T08:20:03.960Z,17.19
2022-08-30T08:22:31.049Z,17.16
2022-08-30T08:24:58.041Z,17.14
2022-08-30T08:27:25.186Z,17.15
2022-08-30T08:29:52.117Z,17.08
2022-08-30T08:32:19.134Z,17.04
2022-08-30T08:34:46.273Z,17.03
2022-08-30T08:37:13.236Z,17.00
2022-08-30T08:39:40.207Z,16.92
2022-08-30T08:42:25.621Z,16.88
2022-08-30T08:45:03.786Z,16.88
2022-08-30T08:47:57.972Z,16.77
2022-08-30T08:50:29.002Z,16.64
2022-08-30T08:53:45.578Z,16.53
2022-08-30T08:56:15.174Z,16.37
2022-08-30T08:58:45.442Z,16.24
2022-08-30T09:01:14.154Z,16.14
2022-08-30T09:03:41.988Z,16.14
2022-08-30T09:06:32.957Z,16.14
2022-08-30T09:09:00.078Z,16.15
2022-08-30T09:11:30.438Z,16.21
2022-08-30T09:13:57.435Z,16.33
2022-08-30T09:17:03.254Z,16.46
2022-08-30T09:19:35.815Z,16.56
2022-08-30T09:22:13.038Z,16.64
2022-08-30T09:24:48.954Z,16.71
2022-08-30T09:27:22.164Z,16.75
2022-08-30T09:30:04.523Z,16.81
2022-08-30T09:32:38.991Z,16.85
2022-08-30T09:35:10.393Z,16.85
2022-08-30T09:37:45.894Z,16.90
2022-08-30T09:40:17.353Z,16.92
2022-08-30T09:43:19.378Z,16.82
2022-08-30T09:45:50.300Z,16.69
2022-08-30T09:48:45.152Z,16.52
2022-08-30T09:51:12.574Z,16.47
2022-08-30T09:57:13.298Z,16.49
2022-08-30T09:59:58.232Z,16.53
2022-08-30T10:02:43.923Z,16.59
2022-08-30T10:05:13.853Z,16.60
2022-08-30T10:08:12.759Z,16.68
2022-08-30T10:11:25.080Z,16.78
2022-08-30T10:14:23.875Z,16.89
2022-08-30T10:17:09.921Z,16.96
2022-08-30T10:19:43.002Z,17.06
2022-08-30T10:22:25.023Z,17.16
2022-08-30T10:24:53.142Z,17.31
2022-08-30T10:27:21.269Z,17.38
2022-08-30T10:29:55.351Z,17.43
2022-08-30T10:32:27.061Z,17.54
2022-08-30T10:35:00.523Z,17.65
2022-08-30T10:37:30.414Z,17.69
2022-08-30T10:40:21.194Z,17.77
2022-08-30T10:42:49.772Z,17.89
2022-08-30T10:45:17.362Z,17.95
2022-08-30T10:48:07.395Z,17.88
2022-08-30T10:50:53.756Z,17.82
2022-08-30T10:53:47.193Z,17.75
2022-08-30T10:56:21.343Z,17.70
2022-08-30T10:58:49.132Z,17.67
2022-08-30T11:01:46.285Z,17.67
2022-08-30T11:04:45.408Z,17.77
2022-08-30T11:07:15.623Z,17.82
2022-08-30T11:09:58.182Z,17.85
2022-08-30T11:12:52.193Z,17.95
2022-08-30T11:15:25.848Z,18.06
2022-08-30T11:18:03.932Z,18.02
2022-08-30T11:20:50.892Z,17.99
2022-08-30T11:23:36.591Z,17.94
2022-08-30T11:26:03.551Z,17.90
2022-08-30T11:28:36.491Z,17.82
2022-08-30T11:31:15.849Z,17.74
2022-08-30T11:33:51.532Z,17.80
2022-08-30T11:36:37.697Z,17.88
2022-08-30T11:39:14.157Z,17.91
2022-08-30T11:41:47.950Z,17.93
2022-08-30T11:44:28.718Z,17.97
2022-08-30T11:46:59.044Z,17.97
2022-08-30T11:49:46.088Z,18.05
2022-08-30T11:52:54.927Z,18.26
2022-08-30T11:55:45.461Z,18.43
2022-08-30T11:58:31.053Z,18.34
2022-08-30T12:01:51.083Z,18.32
2022-08-30T12:04:17.190Z,18.45
2022-08-30T12:07:04.230Z,18.34
2022-08-30T12:09:33.130Z,18.36
2022-08-30T12:12:02.752Z,18.38
2022-08-30T12:14:54.684Z,18.37
2022-08-30T12:17:46.272Z,18.36
2022-08-30T12:20:39.223Z,18.43
2022-08-30T12:23:33.346Z,18.50
2022-08-30T12:26:38.539Z,18.65
2022-08-30T12:29:18.361Z,18.85
2022-08-30T12:32:08.301Z,18.94
2022-08-30T12:34:38.527Z,18.92
2022-08-30T12:37:10.863Z,18.89
2022-08-30T12:39:39.029Z,18.95
2022-08-30T12:42:27.157Z,18.88
2022-08-30T12:44:57.953Z,18.91
2022-08-30T12:47:33.441Z,18.92
2022-08-30T12:50:01.794Z,18.93
2022-08-30T12:52:37.712Z,18.85
2022-08-30T12:55:24.221Z,18.76
2022-08-30T12:58:00.745Z,18.72
2022-08-30T13:00:28.121Z,18.67
2022-08-30T13:02:58.244Z,18.63
2022-08-30T13:05:48.336Z,18.61
2022-08-30T13:08:36.819Z,18.64
2022-08-30T13:11:08.555Z,18.57
2022-08-30T13:13:51.995Z,18.50
2022-08-30T13:16:23.063Z,18.43
2022-08-30T13:18:55.651Z,18.47
2022-08-30T13:21:34.974Z,18.50
2022-08-30T13:24:04.885Z,18.58
2022-08-30T13:26:35.495Z,18.70
2022-08-30T13:29:05.611Z,18.77
2022-08-30T13:31:37.603Z,18.80
2022-08-30T13:34:05.247Z,18.81
2022-08-30T13:36:36.709Z,18.94
2022-08-30T13:39:04.892Z,19.00
2022-08-30T13:41:34.216Z,18.94
2022-08-30T13:44:20.255Z,18.89
2022-08-30T13:46:55.302Z,18.84
2022-08-30T13:49:45.478Z,18.80
2022-08-30T13:52:21.785Z,18.88
2022-08-30T13:54:53.730Z,19.05
2022-08-30T14:00:15.182Z,18.94
2022-08-30T14:02:47.603Z,18.94
2022-08-30T14:05:46.734Z,18.94
2022-08-30T14:08:05.141Z,19.03
2022-08-30T14:10:37.721Z,19.03
2022-08-30T14:13:12.887Z,19.03
2022-08-30T14:15:41.564Z,18.97
2022-08-30T14:18:08.887Z,18.95
2022-08-30T14:20:38.578Z,18.91
2022-08-30T14:23:07.643Z,18.78
2022-08-30T14:25:37.854Z,18.71
2022-08-30T14:28:09.637Z,18.75
2022-08-30T14:30:38.911Z,18.87
2022-08-30T14:33:06.422Z,19.04
2022-08-30T14:35:33.821Z,19.07
2022-08-30T14:38:00.762Z,19.05
2022-08-30T14:40:27.932Z,19.07
2022-08-30T14:42:55.126Z,19.04
2022-08-30T14:45:22.363Z,19.26
2022-08-30T14:47:49.943Z,19.44
2022-08-30T14:50:17.165Z,19.62
2022-08-30T14:52:45.368Z,19.73
2022-08-30T14:55:13.285Z,19.77
2022-08-30T14:57:40.588Z,19.79
2022-08-30T15:00:11.647Z,19.72
2022-08-30T15:02:38.595Z,19.66
2022-08-30T15:05:08.380Z,19.73
2022-08-30T15:07:35.809Z,19.69
2022-08-30T15:10:03.676Z,19.53
2022-08-30T15:12:30.604Z,19.35
2022-08-30T15:14:57.604Z,19.05
2022-08-30T15:17:24.652Z,18.90
2022-08-30T15:19:51.666Z,18.76
2022-08-30T15:22:18.806Z,18.63
2022-08-30T15:24:46.646Z,18.58
2022-08-30T15:27:16.331Z,18.38
2022-08-30T15:29:43.144Z,18.34
2022-08-30T15:32:09.997Z,18.31
2022-08-30T15:34:36.961Z,18.27
2022-08-30T15:37:05.155Z,18.23
2022-08-30T15:39:34.794Z,18.17
2022-08-30T15:42:02.016Z,18.10
2022-08-30T15:44:32.309Z,18.02
2022-08-30T15:47:01.797Z,17.98
2022-08-30T15:49:28.986Z,17.94
2022-08-30T15:52:00.828Z,17.86
2022-08-30T15:54:28.974Z,17.82
2022-08-30T15:56:59.729Z,17.78
2022-08-30T15:59:28.225Z,17.76
2022-08-30T16:01:55.273Z,17.70
2022-08-30T16:04:24.298Z,17.65
2022-08-30T16:06:52.956Z,17.64
2022-08-30T16:09:20.023Z,17.61
2022-08-30T16:11:46.961Z,17.66
2022-08-30T16:14:14.173Z,17.65
2022-08-30T16:16:41.983Z,17.77
2022-08-30T16:19:09.432Z,17.88
2022-08-30T16:21:37.114Z,17.97
2022-08-30T16:24:05.888Z,18.04
2022-08-30T16:26:34.923Z,18.10
2022-08-30T16:29:03.952Z,18.07
2022-08-30T16:31:32.073Z,18.01
2022-08-30T16:34:02.823Z,17.95
2022-08-30T16:36:32.106Z,17.87
2022-08-30T16:38:59.579Z,17.80
2022-08-30T16:41:26.689Z,17.68
2022-08-30T16:43:54.240Z,17.56
2022-08-30T16:46:27.398Z,17.46
2022-08-30T16:48:57.543Z,17.40
2022-08-30T16:51:26.796Z,17.34
2022-08-30T16:53:58.633Z,17.31
2022-08-30T16:56:27.492Z,17.30
2022-08-30T16:59:01.192Z,17.28
2022-08-30T17:01:34.804Z,17.24
2022-08-30T17:04:02.790Z,17.24
2022-08-30T17:06:30.070Z,17.21
2022-08-30T17:08:57.174Z,17.16
2022-08-30T17:11:24.769Z,17.06
2022-08-30T17:13:52.316Z,17.01
2022-08-30T17:16:22.770Z,16.93
2022-08-30T17:18:56.288Z,16.85
2022-08-30T17:21:27.395Z,16.78
2022-08-30T17:23:54.329Z,16.73
2022-08-30T17:26:28.446Z,16.65
2022-08-30T17:28:55.413Z,16.61
2022-08-30T17:31:23.111Z,16.52
2022-08-30T17:33:50.645Z,16.46
2022-08-30T17:36:17.556Z,16.41
2022-08-30T17:38:45.200Z,16.35
2022-08-30T17:41:13.341Z,16.30
2022-08-30T17:43:40.423Z,16.27
2022-08-30T17:46:10.218Z,16.24
2022-08-30T17:48:37.994Z,16.21
2022-08-30T17:51:05.984Z,16.18
2022-08-30T17:53:34.064Z,16.15
2022-08-30T17:56:01.204Z,16.08
2022-08-30T17:58:28.095Z,16.03
2022-08-30T18:01:14.896Z,15.95
2022-08-30T18:03:45.415Z,15.91
2022-08-30T18:06:13.626Z,15.84
2022-08-30T18:08:41.505Z,15.80
2022-08-30T18:11:08.847Z,15.72
2022-08-30T18:13:36.062Z,15.67
2022-08-30T18:16:04.338Z,15.60
2022-08-30T18:18:32.687Z,15.53
2022-08-30T18:20:59.959Z,15.48
2022-08-30T18:23:27.239Z,15.40
2022-08-30T18:26:01.435Z,15.34
2022-08-30T18:28:29.322Z,15.28
2022-08-30T18:30:59.236Z,15.20
2022-08-30T18:33:27.476Z,15.15
2022-08-30T18:35:55.851Z,15.14
2022-08-30T18:38:24.475Z,15.09
2022-08-30T18:40:53.240Z,15.04
2022-08-30T18:43:22.939Z,15.04
2022-08-30T18:45:57.378Z,14.99
2022-08-30T18:48:24.256Z,14.97
2022-08-30T18:50:55.343Z,14.92
2022-08-30T18:53:28.309Z,14.88
2022-08-30T18:55:56.267Z,14.86
2022-08-30T18:58:23.197Z,14.82
2022-08-30T19:00:50.826Z,14.80
2022-08-30T19:03:18.946Z,14.76
2022-08-30T19:05:46.378Z,14.70
2022-08-30T19:08:13.866Z,14.68
2022-08-30T19:10:41.610Z,14.67
2022-08-30T19:13:10.259Z,14.67
2022-08-30T19:15:38.882Z,14.65
2022-08-30T19:18:12.902Z,14.64
2022-08-30T19:20:44.819Z,14.66
2022-08-30T19:23:12.768Z,14.67
2022-08-30T19:25:40.991Z,14.68
2022-08-30T19:28:08.807Z,14.70
2022-08-30T19:30:36.966Z,14.71
2022-08-30T19:33:05.789Z,14.70
2022-08-30T19:35:33.506Z,14.68
2022-08-30T19:38:00.560Z,14.68
2022-08-30T19:40:28.690Z,14.66
2022-08-30T19:42:55.987Z,14.65
2022-08-30T19:45:23.211Z,14.66
2022-08-30T19:47:51.532Z,14.64
2022-08-30T19:50:18.881Z,14.61
2022-08-30T19:52:52.682Z,14.58
2022-08-30T19:55:28.099Z,14.56
2022-08-30T19:57:56.395Z,14.54
2022-08-30T20:00:23.807Z,14.51
2022-08-30T20:02:52.002Z,14.48
2022-08-30T20:05:21.428Z,14.47
2022-08-30T20:07:51.104Z,14.42
2022-08-30T20:10:20.722Z,14.36
2022-08-30T20:12:52.938Z,14.35
2022-08-30T20:15:20.649Z,14.31
2022-08-30T20:18:05.129Z,14.29
2022-08-30T20:20:36.305Z,14.30
2022-08-30T20:23:05.067Z,14.30
2022-08-30T20:25:32.503Z,14.28
2022-08-30T20:28:01.500Z,14.29
2022-08-30T20:30:28.454Z,14.29
2022-08-30T20:32:56.530Z,14.31
2022-08-30T20:35:24.249Z,14.34
2022-08-30T20:37:51.452Z,14.36
2022-08-30T20:40:19.061Z,14.39
2022-08-30T20:42:46.726Z,14.42
2022-08-30T20:45:16.273Z,14.48
2022-08-30T20:47:43.520Z,14.52
2022-08-30T20:50:13.637Z,14.55
2022-08-30T20:52:41.706Z,14.56
2022-08-30T20:55:10.226Z,14.60
2022-08-30T20:57:37.507Z,14.64
2022-08-30T21:00:11.071Z,14.66
2022-08-30T21:02:46.674Z,14.68
2022-08-30T21:05:16.306Z,14.71
2022-08-30T21:07:45.656Z,14.73
2022-08-30T21:10:13.381Z,14.73
2022-08-30T21:12:40.353Z,14.77
2022-08-30T21:15:34.138Z,14.79
2022-08-30T21:17:55.346Z,14.79
2022-08-30T21:20:22.850Z,14.82
2022-08-30T21:22:49.976Z,14.83
2022-08-30T21:25:17.198Z,14.84
2022-08-30T21:27:44.424Z,14.84
2022-08-30T21:30:13.332Z,14.86
2022-08-30T21:32:41.096Z,14.89
2022-08-30T21:35:27.559Z,14.91
2022-08-30T21:37:55.435Z,14.95
2022-08-30T21:40:22.657Z,14.99
2022-08-30T21:42:49.710Z,15.02
2022-08-30T21:45:16.704Z,15.06
2022-08-30T21:47:43.982Z,15.10
2022-08-30T21:50:11.629Z,15.14
2022-08-30T21:52:38.685Z,15.19
2022-08-30T21:55:06.433Z,15.23
2022-08-30T21:57:33.440Z,15.23
2022-08-30T22:00:00.410Z,15.25
2022-08-30T22:02:28.841Z,15.25
2022-08-30T22:04:56.156Z,15.24
2022-08-30T22:07:23.055Z,15.23
2022-08-30T22:09:50.140Z,15.21
2022-08-30T22:12:17.550Z,15.19
2022-08-30T22:14:44.544Z,15.15
2022-08-30T22:17:11.569Z,15.12
2022-08-30T22:19:38.587Z,15.09
2022-08-30T22:22:06.016Z,15.06
2022-08-30T22:24:33.307Z,15.04
2022-08-30T22:27:05.082Z,15.03
2022-08-30T22:29:32.756Z,15.01
2022-08-30T22:32:01.219Z,14.98
2022-08-30T22:34:28.336Z,14.94
2022-08-30T22:36:55.536Z,14.92
2022-08-30T22:39:22.477Z,14.88
2022-08-30T22:41:50.382Z,14.86
2022-08-30T22:44:17.485Z,14.83
2022-08-30T22:46:45.107Z,14.81
2022-08-30T22:49:12.545Z,14.82
2022-08-30T22:51:41.087Z,14.81
2022-08-30T22:54:09.945Z,14.76
2022-08-30T22:56:38.296Z,14.77
2022-08-30T22:59:06.322Z,14.80
2022-08-30T23:01:39.752Z,14.79
2022-08-30T23:04:08.082Z,14.80
2022-08-30T23:06:35.573Z,14.80
2022-08-30T23:09:03.650Z,14.79
2022-08-30T23:11:30.603Z,14.75
2022-08-30T23:14:00.466Z,14.74
2022-08-30T23:16:27.458Z,14.72
2022-08-30T23:18:54.507Z,14.72
2022-08-30T23:21:24.609Z,14.70
2022-08-30T23:24:11.728Z,14.74
2022-08-30T23:26:58.447Z,14.77
2022-08-30T23:29:44.556Z,14.76
2022-08-30T23:32:30.557Z,14.79
2022-08-30T23:35:16.306Z,14.80
2022-08-30T23:38:01.953Z,14.84
2022-08-30T23:40:47.690Z,14.87
2022-08-30T23:43:33.115Z,14.91
2022-08-30T23:46:19.732Z,14.94
2022-08-30T23:49:09.000Z,14.96
2022-08-30T23:51:56.135Z,14.98
2022-08-30T23:54:42.637Z,15.00
2022-08-30T23:57:28.505Z,15.02
